North Madison, Ohio
Current Conditions -  °F | °C
As of 12:53 PM on Wednesday 28 Jan 2015 (Local Time) from KHZY Reporting Station
Clear Clear  
Wind Chill: 22°   Ceiling: Unl
Heat Index: 22°   Visibility: 10mi
Dew Point:   Wind: 0mph
Humidity: 44%   Direction: NA
Pressure: 30.31"   Gusts: NA
Location:  41.7879°N, 81.0546°W
Report Text: KHZY 281753Z AUTO 00000KT 10SM CLR M06/M16 A3031 RMK AO2 SLP284 T10561161 11050 21228 58009
Loading
Personal Weather Stations






























Interactive Weather Map New forecast layout! Learn more

10-Day Weather Forecast

Advertisements
Track Severe Weather on mobile